2018/02/23 18:00 VVNB 231800Z 07003KT 6000 SCT015 BKN023 16/13 Q1018 NOSIG
2018/02/23 18:00 VVDN 231800Z VRB01KT 8000 SCT012 BKN050 21/18 Q1017 NOSIG
2018/02/23 18:00 VVTS 231800Z 10007KT 060V130 9999 FEW017 SCT050 26/22 Q1011 NOSIG
2018/02/23 18:00 VVPB 231800Z 31004KT 8000 SCT017 BKN050 18/18 Q1017 NOSIG

Powered by MinhViet JSC.